Alamo, Georgia
Current Conditions -  °F | °C
As of 9:35 AM on Thursday 23 Oct 2014 (Local Time) from KAZE Reporting Station
Clear Clear  
Wind Chill: 54°   Ceiling: Unl
Heat Index: 54°   Visibility: 10mi
Dew Point: 46°   Wind: 7mph
Humidity: 75%   Direction: 70°ENE
Pressure: 30.12"   Gusts: NA
Location:  32.15°N, 82.78°W
Report Text: KAZE 231335Z AUTO 07006KT 10SM CLR 12/08 A3012 RMK AO2 T01220078
Loading
Personal Weather Stations






























Interactive Weather Map
Tropical Storm Tracking
New forecast layout! Learn more

10-Day Weather Forecast

Advertisements
Track Severe Weather on mobile